This is the latest recevied weather packets stored in our database for station/object HP3ICC-23. If no packets are shown the sender has not sent any weather packets the latest 10 day(s).
| Time | Temp. | Humidity | Pressure | Rain* | Wind** | Luminosity | Snow |
|---|---|---|---|---|---|---|---|
| 1778084613 | 20° C | 72% | 1013 hPa | 0 mm | - | - | - |
| 1778083473 | 20° C | 72% | 1013 hPa | 0 mm | - | - | - |
| 1778083413 | 20° C | 72% | 1013 hPa | 0 mm | - | - | - |
| 1778082272 | 19.44° C | 70% | 1013 hPa | 0 mm | - | - | - |
| 1778082212 | 19.44° C | 70% | 1013 hPa | 0 mm | - | - | - |
| 1778081072 | 18.33° C | 77% | 1013 hPa | 0 mm | - | - | - |
| 1778081011 | 18.33° C | 77% | 1013 hPa | 0 mm | - | - | - |
| 1778079871 | 18.33° C | 78% | 1013 hPa | 0 mm | - | - | - |
| 1778079811 | 18.33° C | 78% | 1013 hPa | 0 mm | - | - | - |
| 1778078671 | 18.33° C | 80% | 1013 hPa | 0 mm | - | - | - |
| 1778078611 | 18.33° C | 80% | 1013 hPa | 0 mm | - | - | - |
| 1778077470 | 18.89° C | 77% | 1013 hPa | 0 mm | - | - | - |
| 1778077410 | 18.89° C | 77% | 1013 hPa | 0 mm | - | - | - |
| 1778076270 | 18.33° C | 79% | 1013 hPa | 0 mm | - | - | - |
| 1778076209 | 18.33° C | 79% | 1013 hPa | 0 mm | - | - | - |
| 1778075069 | 18.89° C | 76% | 1014 hPa | 0 mm | - | - | - |
| 1778075009 | 18.89° C | 76% | 1014 hPa | 0 mm | - | - | - |
| 1778073869 | 16.67° C | 84% | 1013 hPa | 0 mm | - | - | - |
| 1778073808 | 16.67° C | 84% | 1013 hPa | 0 mm | - | - | - |
| 1778072668 | 16.11° C | 86% | 1012 hPa | 0 mm | - | - | - |
| 1778072608 | 16.11° C | 86% | 1012 hPa | 0 mm | - | - | - |
| 1778071467 | 14.44° C | 89% | 1013 hPa | 0 mm | - | - | - |
| 1778071407 | 14.44° C | 89% | 1013 hPa | 0 mm | - | - | - |
| 1778070267 | 15° C | 89% | 1012 hPa | 0 mm | - | - | - |
| 1778070207 | 15° C | 89% | 1012 hPa | 0 mm | - | - | - |
* Rain latest hour (hover to see other rain measurements)
** Current wind speed in m/s (hover to see current wind gust speed)